createdAt,value
2022-09-29T00:00:48.276Z,6.19
2022-09-29T00:03:36.390Z,6.22
2022-09-29T00:06:33.755Z,6.31
2022-09-29T00:09:13.926Z,6.32
2022-09-29T00:15:18.687Z,6.31
2022-09-29T00:18:18.943Z,6.31
2022-09-29T00:23:59.445Z,6.34
2022-09-29T00:26:31.586Z,6.39
2022-09-29T00:29:00.784Z,6.39
2022-09-29T00:31:41.140Z,6.38
2022-09-29T00:34:17.600Z,6.37
2022-09-29T00:39:57.814Z,6.41
2022-09-29T00:42:40.445Z,6.41
2022-09-29T00:45:16.334Z,6.47
2022-09-29T00:50:58.615Z,6.46
2022-09-29T00:53:29.975Z,6.48
2022-09-29T00:56:26.699Z,6.49
2022-09-29T00:59:09.573Z,6.51
2022-09-29T01:01:42.203Z,6.48
2022-09-29T01:04:21.896Z,6.50
2022-09-29T01:07:12.395Z,6.50
2022-09-29T01:10:45.122Z,6.54
2022-09-29T01:13:28.300Z,6.53
2022-09-29T01:16:02.285Z,6.52
2022-09-29T01:19:00.406Z,6.54
2022-09-29T01:25:38.517Z,6.59
2022-09-29T01:27:55.925Z,6.61
2022-09-29T01:31:02.943Z,6.61
2022-09-29T01:33:58.129Z,6.60
2022-09-29T01:36:31.046Z,6.55
2022-09-29T01:39:34.319Z,6.47
2022-09-29T01:42:17.831Z,6.38
2022-09-29T01:45:04.004Z,6.31
2022-09-29T01:48:07.876Z,6.28
2022-09-29T01:50:49.785Z,6.33
2022-09-29T01:53:24.605Z,6.29
2022-09-29T01:56:08.684Z,6.23
2022-09-29T02:02:49.506Z,6.35
2022-09-29T02:06:01.388Z,6.45
2022-09-29T02:09:28.404Z,6.50
2022-09-29T02:12:02.703Z,6.53
2022-09-29T02:14:44.373Z,6.56
2022-09-29T02:17:26.018Z,6.54
2022-09-29T02:20:03.563Z,6.42
2022-09-29T02:22:36.924Z,6.37
2022-09-29T02:25:04.174Z,6.33
2022-09-29T02:27:44.481Z,6.37
2022-09-29T02:30:25.353Z,6.26
2022-09-29T02:33:01.033Z,6.26
2022-09-29T02:36:14.044Z,6.27
2022-09-29T02:38:49.070Z,6.33
2022-09-29T02:41:49.181Z,6.45
2022-09-29T02:44:22.463Z,6.46
2022-09-29T02:47:08.140Z,6.41
2022-09-29T02:50:03.060Z,6.40
2022-09-29T02:53:24.318Z,6.49
2022-09-29T02:55:50.460Z,6.52
2022-09-29T02:58:48.386Z,6.54
2022-09-29T03:01:16.871Z,6.59
2022-09-29T03:04:04.376Z,6.61
2022-09-29T03:06:54.800Z,6.62
2022-09-29T03:09:28.497Z,6.59
2022-09-29T03:11:58.625Z,6.62
2022-09-29T03:14:27.402Z,6.62
2022-09-29T03:16:57.183Z,6.61
2022-09-29T03:19:30.078Z,6.57
2022-09-29T03:22:03.999Z,6.54
2022-09-29T03:24:36.478Z,6.47
2022-09-29T03:27:16.772Z,6.48
2022-09-29T03:29:54.228Z,6.47
2022-09-29T03:32:25.867Z,6.47
2022-09-29T03:34:56.049Z,6.45
2022-09-29T03:37:27.773Z,6.41
2022-09-29T03:40:00.318Z,6.39
2022-09-29T03:42:37.899Z,6.34
2022-09-29T03:45:08.133Z,6.28
2022-09-29T03:47:52.155Z,6.26
2022-09-29T03:50:26.900Z,6.25
2022-09-29T03:53:18.652Z,6.15
2022-09-29T03:55:56.000Z,6.02
2022-09-29T03:58:25.389Z,5.94
2022-09-29T04:03:52.519Z,5.81
2022-09-29T04:06:24.984Z,5.76
2022-09-29T04:08:57.998Z,5.74
2022-09-29T04:11:36.595Z,5.72
2022-09-29T04:14:06.674Z,5.72
2022-09-29T04:16:41.134Z,5.83
2022-09-29T04:19:14.383Z,5.77
2022-09-29T04:24:24.288Z,5.62
2022-09-29T04:27:35.031Z,5.58
2022-09-29T04:30:08.043Z,5.54
2022-09-29T04:32:38.473Z,5.58
2022-09-29T04:35:05.488Z,5.49
2022-09-29T04:37:32.145Z,5.63
2022-09-29T04:39:58.773Z,5.57
2022-09-29T04:42:35.398Z,5.46
2022-09-29T04:45:22.889Z,5.43
2022-09-29T04:48:12.189Z,5.39
2022-09-29T04:51:02.015Z,5.34
2022-09-29T04:54:18.913Z,5.48
2022-09-29T04:56:51.477Z,5.46
2022-09-29T05:02:19.432Z,5.51
2022-09-29T05:09:12.987Z,5.41
2022-09-29T05:11:45.173Z,5.47
2022-09-29T05:14:12.607Z,5.40
2022-09-29T05:16:52.853Z,5.43
2022-09-29T05:20:10.323Z,5.44
2022-09-29T05:22:44.114Z,5.50
2022-09-29T05:28:11.831Z,5.53
2022-09-29T05:30:54.044Z,5.55
2022-09-29T05:36:44.275Z,5.71
2022-09-29T05:39:47.459Z,5.82
2022-09-29T05:46:11.370Z,6.06
2022-09-29T05:55:37.051Z,6.64
2022-09-29T06:01:10.761Z,6.73
2022-09-29T06:07:03.700Z,7.10
2022-09-29T06:09:48.909Z,7.23
2022-09-29T06:31:28.552Z,7.38
2022-09-29T06:38:37.238Z,7.28
2022-09-29T06:41:16.080Z,7.31
2022-09-29T06:44:28.475Z,7.24
2022-09-29T06:47:22.562Z,7.23
2022-09-29T06:50:07.119Z,7.28
2022-09-29T06:52:36.602Z,7.58
2022-09-29T06:55:48.593Z,7.69
2022-09-29T06:58:38.945Z,8.13
2022-09-29T07:01:33.845Z,8.40
2022-09-29T07:04:07.039Z,8.35
2022-09-29T07:06:35.479Z,8.46
2022-09-29T07:09:22.996Z,8.47
2022-09-29T07:12:24.201Z,8.64
2022-09-29T07:15:44.598Z,8.69
2022-09-29T07:18:23.534Z,8.68
2022-09-29T07:20:52.561Z,8.89
2022-09-29T07:23:21.879Z,8.81
2022-09-29T07:25:54.689Z,8.80
2022-09-29T07:28:42.717Z,8.95
2022-09-29T07:31:46.001Z,8.82
2022-09-29T07:34:58.318Z,8.96
2022-09-29T07:37:54.995Z,9.01
2022-09-29T07:41:00.448Z,9.04
2022-09-29T07:47:02.936Z,9.01
2022-09-29T07:49:49.810Z,9.09
2022-09-29T07:52:26.009Z,9.18
2022-09-29T07:55:10.428Z,8.99
2022-09-29T07:58:12.982Z,8.84
2022-09-29T08:00:37.963Z,8.68
2022-09-29T08:03:16.528Z,8.69
2022-09-29T08:06:02.525Z,8.72
2022-09-29T08:08:31.624Z,8.62
2022-09-29T08:11:26.735Z,8.62
2022-09-29T08:14:08.781Z,8.66
2022-09-29T08:16:53.152Z,8.70
2022-09-29T08:24:41.784Z,8.68
2022-09-29T08:32:15.805Z,8.79
2022-09-29T08:35:22.945Z,8.87
2022-09-29T08:40:50.492Z,8.93
2022-09-29T08:43:34.788Z,8.90
2022-09-29T08:46:09.024Z,8.77
2022-09-29T08:48:50.565Z,8.78
2022-09-29T08:51:41.761Z,8.72
2022-09-29T08:54:35.815Z,8.84
2022-09-29T08:57:06.167Z,8.99
2022-09-29T08:59:33.317Z,8.97
2022-09-29T09:02:24.399Z,9.02
2022-09-29T09:05:01.026Z,9.03
2022-09-29T09:07:41.863Z,8.97
2022-09-29T09:10:27.527Z,8.95
2022-09-29T09:13:06.065Z,9.00
2022-09-29T09:15:40.425Z,9.08
2022-09-29T09:18:22.678Z,9.11
2022-09-29T09:21:09.885Z,9.27
2022-09-29T09:24:01.667Z,9.38
2022-09-29T09:26:31.548Z,9.56
2022-09-29T09:29:04.142Z,9.58
2022-09-29T09:31:35.903Z,9.61
2022-09-29T09:34:20.623Z,9.61
2022-09-29T09:37:06.911Z,9.76
2022-09-29T09:39:45.892Z,9.96
2022-09-29T09:42:21.765Z,10.09
2022-09-29T09:44:53.080Z,10.12
2022-09-29T09:47:32.905Z,10.09
2022-09-29T09:50:20.980Z,10.41
2022-09-29T09:52:57.921Z,10.36
2022-09-29T09:55:28.323Z,10.48
2022-09-29T09:57:59.280Z,10.58
2022-09-29T10:00:30.870Z,10.75
2022-09-29T10:03:03.519Z,10.82
2022-09-29T10:05:38.972Z,10.82
2022-09-29T10:08:39.716Z,10.79
2022-09-29T10:11:25.026Z,11.45
2022-09-29T10:14:05.300Z,11.98
2022-09-29T10:16:36.675Z,12.54
2022-09-29T10:19:14.530Z,13.00
2022-09-29T10:21:45.765Z,13.38
2022-09-29T10:24:54.461Z,13.44
2022-09-29T10:27:30.841Z,13.44
2022-09-29T10:29:58.666Z,13.09
2022-09-29T10:32:37.066Z,12.67
2022-09-29T10:35:11.831Z,12.90
2022-09-29T10:37:43.677Z,12.98
2022-09-29T10:40:13.506Z,12.81
2022-09-29T10:42:46.328Z,12.37
2022-09-29T10:46:00.887Z,11.86
2022-09-29T10:48:33.930Z,11.61
2022-09-29T10:51:05.161Z,11.44
2022-09-29T10:53:56.552Z,11.02
2022-09-29T10:59:54.004Z,10.81
2022-09-29T11:03:12.451Z,10.77
2022-09-29T11:06:04.196Z,10.75
2022-09-29T11:08:36.436Z,10.76
2022-09-29T11:11:22.785Z,10.88
2022-09-29T11:13:59.562Z,10.87
2022-09-29T11:16:42.473Z,10.93
2022-09-29T11:19:22.390Z,10.93
2022-09-29T11:22:27.800Z,10.93
2022-09-29T11:28:28.543Z,11.52
2022-09-29T11:35:05.650Z,12.78
2022-09-29T11:37:49.015Z,13.01
2022-09-29T11:40:35.131Z,13.46
2022-09-29T11:43:07.529Z,13.26
2022-09-29T11:45:42.438Z,13.52
2022-09-29T11:48:30.500Z,13.56
2022-09-29T11:51:33.489Z,13.31
2022-09-29T11:54:31.189Z,13.56
2022-09-29T11:57:09.748Z,13.34
2022-09-29T12:00:08.180Z,13.48
2022-09-29T12:03:48.539Z,13.43
2022-09-29T12:59:35.634Z,12.35
2022-09-29T13:02:09.347Z,12.16
2022-09-29T13:05:06.768Z,12.17
2022-09-29T13:07:36.609Z,12.33
2022-09-29T13:10:25.450Z,12.49
2022-09-29T13:13:14.160Z,12.61
2022-09-29T13:16:18.770Z,12.61
2022-09-29T13:19:22.824Z,12.57
2022-09-29T13:22:02.538Z,12.60
2022-09-29T13:24:54.647Z,12.65
2022-09-29T13:27:30.686Z,12.62
2022-09-29T13:30:17.566Z,12.56
2022-09-29T13:32:47.992Z,12.51
2022-09-29T13:35:27.873Z,12.57
2022-09-29T13:38:19.504Z,12.50
2022-09-29T13:41:18.305Z,12.43
2022-09-29T13:43:50.992Z,12.24
2022-09-29T13:46:33.499Z,12.17
2022-09-29T13:49:12.270Z,12.08
2022-09-29T13:52:00.571Z,12.05
2022-09-29T13:54:33.830Z,12.00
2022-09-29T13:57:02.004Z,11.89
2022-09-29T13:59:32.045Z,11.78
2022-09-29T14:02:43.213Z,11.85
2022-09-29T14:05:25.280Z,11.85
2022-09-29T14:07:56.015Z,11.86
2022-09-29T14:10:39.783Z,11.69
2022-09-29T14:13:23.447Z,11.51
2022-09-29T14:15:58.764Z,11.36
2022-09-29T14:18:34.491Z,11.36
2022-09-29T14:21:12.424Z,11.43
2022-09-29T14:24:03.309Z,11.60
2022-09-29T14:26:42.524Z,11.62
2022-09-29T14:29:21.443Z,11.43
2022-09-29T14:32:10.490Z,11.31
2022-09-29T14:34:37.145Z,11.22
2022-09-29T14:37:03.999Z,11.22
2022-09-29T14:39:39.583Z,11.29
2022-09-29T14:42:19.560Z,11.28
2022-09-29T14:45:08.609Z,11.35
2022-09-29T14:48:11.679Z,11.39
2022-09-29T14:51:12.124Z,11.33
2022-09-29T14:54:13.497Z,11.27
2022-09-29T14:56:51.953Z,11.20
2022-09-29T15:00:07.334Z,11.16
2022-09-29T15:02:38.282Z,11.14
2022-09-29T15:05:38.788Z,11.10
2022-09-29T15:08:25.465Z,10.98
2022-09-29T15:11:00.906Z,10.87
2022-09-29T15:13:58.304Z,10.88
2022-09-29T15:16:57.832Z,10.78
2022-09-29T15:19:35.917Z,10.63
2022-09-29T15:22:38.008Z,10.60
2022-09-29T15:25:26.653Z,10.57
2022-09-29T15:27:54.597Z,10.49
2022-09-29T15:30:23.465Z,10.53
2022-09-29T15:32:53.657Z,10.47
2022-09-29T15:35:25.708Z,10.45
2022-09-29T15:37:57.364Z,10.44
2022-09-29T15:40:26.193Z,10.34
2022-09-29T15:43:12.288Z,10.26
2022-09-29T15:45:43.508Z,10.25
2022-09-29T15:48:11.876Z,10.09
2022-09-29T15:50:43.116Z,9.98
2022-09-29T15:53:11.058Z,9.91
2022-09-29T15:55:38.057Z,9.85
2022-09-29T15:58:24.967Z,9.78
2022-09-29T16:01:01.212Z,9.71
2022-09-29T16:03:56.632Z,9.64
2022-09-29T16:06:37.247Z,9.56
2022-09-29T16:09:20.932Z,9.46
2022-09-29T16:11:52.630Z,9.37
2022-09-29T16:14:24.943Z,9.34
2022-09-29T16:16:56.283Z,9.32
2022-09-29T16:19:30.725Z,9.36
2022-09-29T16:22:07.490Z,9.23
2022-09-29T16:24:38.323Z,9.18
2022-09-29T16:27:48.838Z,9.10
2022-09-29T16:30:26.602Z,9.01
2022-09-29T16:33:08.084Z,8.97
2022-09-29T16:35:58.551Z,8.90
2022-09-29T16:38:39.381Z,8.80
2022-09-29T16:41:43.533Z,8.69
2022-09-29T16:44:27.903Z,8.70
2022-09-29T16:47:02.512Z,8.59
2022-09-29T16:49:36.945Z,8.47
2022-09-29T16:52:18.700Z,8.36
2022-09-29T16:55:06.380Z,8.28
2022-09-29T16:57:39.663Z,8.15
2022-09-29T17:00:12.708Z,8.06
2022-09-29T17:02:41.482Z,7.98
2022-09-29T17:05:09.601Z,7.90
2022-09-29T17:07:42.586Z,7.83
2022-09-29T17:10:19.995Z,7.76
2022-09-29T17:12:46.693Z,7.69
2022-09-29T17:15:14.273Z,7.67
2022-09-29T17:17:43.877Z,7.73
2022-09-29T17:20:13.707Z,7.70
2022-09-29T17:22:40.561Z,7.63
2022-09-29T17:25:08.243Z,7.57
2022-09-29T17:27:53.460Z,7.55
2022-09-29T17:30:24.011Z,7.52
2022-09-29T17:32:53.124Z,7.51
2022-09-29T17:35:21.419Z,7.51
2022-09-29T17:37:48.268Z,7.52
2022-09-29T17:40:21.932Z,7.50
2022-09-29T17:42:48.658Z,7.47
2022-09-29T17:45:16.582Z,7.45
2022-09-29T17:47:44.339Z,7.44
2022-09-29T17:50:38.125Z,7.45
2022-09-29T17:53:05.046Z,7.47
2022-09-29T17:55:32.772Z,7.46
2022-09-29T17:58:00.412Z,7.41
2022-09-29T18:00:29.632Z,7.51
2022-09-29T18:02:57.282Z,7.54
2022-09-29T18:05:26.218Z,7.59
2022-09-29T18:07:57.194Z,7.58
2022-09-29T18:10:47.366Z,7.57
2022-09-29T18:13:50.811Z,7.58
2022-09-29T18:16:23.386Z,7.59
2022-09-29T18:18:59.360Z,7.62
2022-09-29T18:21:29.673Z,7.64
2022-09-29T18:23:58.897Z,7.65
2022-09-29T18:26:26.332Z,7.77
2022-09-29T18:28:55.927Z,7.91
2022-09-29T18:31:31.424Z,8.02
2022-09-29T18:33:58.155Z,8.09
2022-09-29T18:36:24.765Z,8.18
2022-09-29T18:38:51.322Z,8.21
2022-09-29T18:41:20.182Z,8.20
2022-09-29T18:43:47.912Z,8.19
2022-09-29T18:46:15.112Z,8.20
2022-09-29T18:48:42.018Z,8.18
2022-09-29T18:51:13.635Z,8.21
2022-09-29T18:53:44.399Z,8.21
2022-09-29T18:56:15.726Z,8.22
2022-09-29T18:58:42.395Z,8.22
2022-09-29T19:01:12.484Z,8.24
2022-09-29T19:03:43.133Z,8.23
2022-09-29T19:06:14.660Z,8.18
2022-09-29T19:08:42.858Z,8.21
2022-09-29T19:11:19.364Z,8.21
2022-09-29T19:13:46.317Z,8.20
2022-09-29T19:16:13.563Z,8.18
2022-09-29T19:18:49.498Z,8.14
2022-09-29T19:21:17.113Z,8.13
2022-09-29T19:23:49.622Z,8.09
2022-09-29T19:26:18.869Z,8.03
2022-09-29T19:28:48.081Z,8.01
2022-09-29T19:31:19.521Z,7.98
2022-09-29T19:33:46.755Z,7.95
2022-09-29T19:36:16.300Z,7.91
2022-09-29T19:38:43.722Z,7.90
2022-09-29T19:41:19.902Z,7.82
2022-09-29T19:43:47.544Z,7.78
2022-09-29T19:46:15.185Z,7.74
2022-09-29T19:48:43.354Z,7.72
2022-09-29T19:51:34.127Z,7.72
2022-09-29T19:54:11.192Z,7.63
2022-09-29T19:56:43.322Z,7.60
2022-09-29T19:59:13.961Z,7.58
2022-09-29T20:01:42.260Z,7.51
2022-09-29T20:04:09.032Z,7.52
2022-09-29T20:06:36.173Z,7.50
2022-09-29T20:09:04.627Z,7.49
2022-09-29T20:11:34.982Z,7.47
2022-09-29T20:14:04.872Z,7.43
2022-09-29T20:16:37.778Z,7.43
2022-09-29T20:19:06.529Z,7.49
2022-09-29T20:21:33.742Z,7.49
2022-09-29T20:24:02.761Z,7.53
2022-09-29T20:26:29.426Z,7.55
2022-09-29T20:29:02.343Z,7.59
2022-09-29T20:31:31.891Z,7.61
2022-09-29T20:33:59.441Z,7.63
2022-09-29T20:36:28.802Z,7.65
2022-09-29T20:38:57.630Z,7.68
2022-09-29T20:41:33.049Z,7.71
2022-09-29T20:44:02.109Z,7.76
2022-09-29T20:46:31.668Z,7.78
2022-09-29T20:48:59.430Z,7.75
2022-09-29T20:51:31.692Z,7.70
2022-09-29T20:54:02.844Z,7.59
2022-09-29T20:56:31.326Z,7.44
2022-09-29T20:59:03.482Z,7.31
2022-09-29T21:01:34.160Z,7.30
2022-09-29T21:04:05.389Z,7.19
2022-09-29T21:06:34.821Z,7.11
2022-09-29T21:09:02.986Z,7.03
2022-09-29T21:11:29.783Z,6.94
2022-09-29T21:13:56.911Z,7.00
2022-09-29T21:16:25.008Z,6.92
2022-09-29T21:18:54.213Z,6.74
2022-09-29T21:21:20.993Z,6.68
2022-09-29T21:23:47.762Z,6.69
2022-09-29T21:26:16.295Z,6.64
2022-09-29T21:29:04.296Z,6.61
2022-09-29T21:31:39.246Z,6.54
2022-09-29T21:34:07.196Z,6.48
2022-09-29T21:36:36.168Z,6.50
2022-09-29T21:39:09.306Z,6.69
2022-09-29T21:41:38.739Z,6.60
2022-09-29T21:44:11.409Z,6.53
2022-09-29T21:46:39.062Z,6.51
2022-09-29T21:49:10.038Z,6.45
2022-09-29T21:51:41.201Z,6.47
2022-09-29T21:54:14.991Z,6.46
2022-09-29T21:56:43.335Z,6.55
2022-09-29T21:59:11.514Z,6.53
2022-09-29T22:01:41.991Z,6.50
2022-09-29T22:04:09.166Z,6.59
2022-09-29T22:06:37.966Z,6.55
2022-09-29T22:09:09.464Z,6.50
2022-09-29T22:11:38.859Z,6.48
2022-09-29T22:14:06.355Z,6.48
2022-09-29T22:16:34.753Z,6.50
2022-09-29T22:19:23.845Z,6.53
2022-09-29T22:21:50.744Z,6.47
2022-09-29T22:24:17.338Z,6.48
2022-09-29T22:26:43.955Z,6.54
2022-09-29T22:29:10.592Z,6.50
2022-09-29T22:31:41.390Z,6.52
2022-09-29T22:34:11.265Z,6.50
2022-09-29T22:36:38.031Z,6.56
2022-09-29T22:39:06.347Z,6.51
2022-09-29T22:41:33.310Z,6.64
2022-09-29T22:44:05.964Z,6.62
2022-09-29T22:46:33.038Z,6.63
2022-09-29T22:49:02.080Z,6.63
2022-09-29T22:51:36.181Z,6.61
2022-09-29T22:54:02.758Z,6.56
2022-09-29T22:56:29.448Z,6.56
2022-09-29T22:59:04.764Z,6.67
2022-09-29T23:01:33.364Z,6.61
2022-09-29T23:04:00.467Z,6.57
2022-09-29T23:06:27.148Z,6.56
2022-09-29T23:08:57.490Z,6.53
2022-09-29T23:11:24.334Z,6.63
2022-09-29T23:13:52.756Z,6.63
2022-09-29T23:16:19.566Z,6.66
2022-09-29T23:18:46.524Z,6.60
2022-09-29T23:21:19.376Z,6.58
2022-09-29T23:24:07.114Z,6.58
2022-09-29T23:26:33.782Z,6.56
2022-09-29T23:29:00.882Z,6.54
2022-09-29T23:31:30.068Z,6.49
2022-09-29T23:33:58.880Z,6.44
2022-09-29T23:36:27.548Z,6.41
2022-09-29T23:39:12.926Z,6.35
2022-09-29T23:41:43.160Z,6.33
2022-09-29T23:44:11.387Z,6.38
2022-09-29T23:46:39.069Z,6.40
2022-09-29T23:49:10.918Z,6.42
2022-09-29T23:51:42.984Z,6.39
2022-09-29T23:54:10.975Z,6.37
2022-09-29T23:56:38.176Z,6.38
2022-09-29T23:59:07.181Z,6.31
